To NAV CANADA Home Page Login to a new session Search on AWWS site Feedback and Comments Disclaimer Vers la page française équivalente Tips FAQ What's new on the site To the Forecasts and Observations / NOTAM section To "File a Flight Plan" website Publications and other links Update of the User's profile FIC Telephone Numbers My Weather Data Folder Route Weather Data Regional Weather Data Local Weather Data To the Forecasts and Observations / NOTAM section
Request Generated 09/30/2016 at 03:09:13 UTC . Weather information available at that time is displayed.


Go to a specific product

Save this request

NOTAM

NOTAM


SIGMET
To the Product Selector

SIGMETS GFACN32

GFACN32 - No SIGMET bulletins in effect



AIRMET
To the Product Selector

AIRMETS GFACN32

GFACN32 - No AIRMET bulletins in effect



PIREP
To the Product Selector

FIR_WINNIPEG (WG)

WG - PIREP not available



METAR/TAF
To the Product Selector

REGINA/REGINA INTL/SK    

METAR CYQR 300300Z 13016KT 15SM FEW140 16/08 A3011 RMK AC1 SLP208
DENSITY ALT 2200FT=
METAR CYQR 300200Z 13017KT 15SM BKN150 17/08 A3010 RMK AC7 SLP206
DENSITY ALT 2400FT=
METAR CYQR 300100Z 13018G25KT 15SM SCT090 SCT300 20/07 A3008 RMK
AC3CI1 SLP197 DENSITY ALT 2700FT=

TAF CYQR 292340Z 3000/3024 15018G28KT P6SM FEW100
BECMG 3006/3008 15015KT
FM301400 15015KT P6SM BKN100
RMK NXT FCST BY 300600Z=

MOOSE JAW/AIR VICE MARSHAL C.M. MCEWEN/SK    

SPECI CYMJ 300024Z 14008KT 10SM SCT140 BKN250 24/10 A3004 RMK AC3CI1 DU LAST OBS / NXT 301000 UTC SLP181=
METAR CYMJ 300000Z 14008KT 10SM SCT140 BKN250 24/09 A3004 RMK AC3CI1 DU SLP180=

TAF AMD CYMJ 300029Z 3000/3012 FCST CNCLD DUE END OF FLYING PROGRAM
RMK NXT FCST WILL BE ISSUED AT 301115Z=


RADAR PCPN RATE
To the Product Selector
Pacific Canada      Western Canada     

SATELLITE VISIBLE
To the Product Selector
West Canada      

SATELLITE INFRARED
To the Product Selector
West Canada     

GRAPHICAL FA CLOUDS & WEATHER FORECASTS
To the Product Selector
Graphical FA gfacn32      

GRAPHICAL FA ICING, TURBULENCE & FREEZING LEVEL FORECASTS
To the Product Selector
Graphical FA gfacn32      

FDTEXT Low Level FD. Temperatures are not forecast for the 3,000-foot level.
To the Product Selector
STN YQR - REGINA. SASK for use 3000 6000 9000 12000 18000
FDCN01 CWAO FCST BASED ON 300000 DATA VALID 300600 05-09 1819+17 1714+11 2012+03 2516-11
FDCN02 CWAO FCST BASED ON 300000 DATA VALID 301200 09-18 1718+17 1715+10 2113+02 2612-11
FDCN03 CWAO FCST BASED ON 300000 DATA VALID 010000 18-05 1915+15 1912+11 2208+03 2409-12



Your time UTC time
Weather data provided by Environment Canada and NAV CANADA